createdAt,value
2024-03-02T17:57:31.676Z,60.10
2024-03-02T17:58:34.219Z,56.85
2024-03-02T17:59:38.618Z,49.03
2024-03-02T18:00:42.303Z,68.57
2024-03-02T18:01:44.789Z,56.53
2024-03-02T18:02:47.132Z,68.88
2024-03-02T18:03:50.074Z,102.35
2024-03-02T18:04:52.484Z,90.45
2024-03-02T18:05:54.787Z,81.90
2024-03-02T18:06:59.724Z,58.60
2024-03-02T18:08:02.502Z,53.40
2024-03-02T18:09:04.827Z,51.20
2024-03-02T18:10:08.320Z,42.35
2024-03-02T18:11:10.840Z,41.75
2024-03-02T18:12:13.486Z,39.55
2024-03-02T18:13:16.432Z,35.78
2024-03-02T18:14:19.365Z,38.42
2024-03-02T18:15:21.679Z,37.05
2024-03-02T18:16:24.083Z,34.25
2024-03-02T18:17:26.615Z,30.92
2024-03-02T18:18:29.308Z,32.83
2024-03-02T18:19:32.880Z,30.83
2024-03-02T18:20:35.625Z,40.67
2024-03-02T18:21:38.083Z,35.65
2024-03-02T18:22:40.989Z,40.50
2024-03-02T18:23:43.445Z,41.92
2024-03-02T18:24:46.857Z,42.13
2024-03-02T18:25:49.354Z,41.78
2024-03-02T18:26:52.027Z,42.70
2024-03-02T18:27:54.581Z,41.42
2024-03-02T18:28:56.992Z,40.45
2024-03-02T18:29:59.989Z,40.05
2024-03-02T18:31:02.755Z,36.75
2024-03-02T18:32:05.877Z,37.42
2024-03-02T18:33:08.503Z,33.63
2024-03-02T18:34:11.013Z,35.45
2024-03-02T18:35:13.369Z,32.83
2024-03-02T18:36:15.800Z,32.63
2024-03-02T18:37:22.943Z,32.67
2024-03-02T18:38:25.506Z,32.63
2024-03-02T18:39:27.879Z,35.85
2024-03-02T18:40:30.232Z,33.13
2024-03-02T18:41:32.969Z,41.17
2024-03-02T18:42:35.849Z,66.47
2024-03-02T18:43:38.263Z,54.60
2024-03-02T18:44:42.393Z,147.40
2024-03-02T18:45:44.836Z,111.82
2024-03-02T18:46:49.797Z,50.22
2024-03-02T18:47:52.633Z,25.48
2024-03-02T18:48:55.119Z,24.45
2024-03-02T18:49:58.526Z,65.60
2024-03-02T18:51:07.220Z,22.85
2024-03-02T18:52:09.624Z,22.10
2024-03-02T18:53:13.984Z,61.70
2024-03-02T18:54:17.454Z,97.65
2024-03-02T18:55:20.231Z,56.40
2024-03-02T18:56:22.922Z,23.92
2024-03-02T18:57:25.241Z,21.98
2024-03-02T18:58:27.882Z,26.08
2024-03-02T18:59:31.724Z,24.02
2024-03-02T19:00:34.331Z,26.80
2024-03-02T19:01:36.828Z,21.88
2024-03-02T19:02:39.333Z,30.63
2024-03-02T19:03:41.797Z,22.10
2024-03-02T19:04:44.218Z,24.50
2024-03-02T19:05:46.523Z,50.45
2024-03-02T19:06:49.062Z,27.70
2024-03-02T19:07:51.382Z,26.08
2024-03-02T19:08:53.712Z,24.70
2024-03-02T19:09:56.374Z,33.47
2024-03-02T19:10:58.875Z,26.23
2024-03-02T19:12:01.184Z,33.53
2024-03-02T19:13:03.633Z,32.47
2024-03-02T19:14:06.158Z,28.55
2024-03-02T19:15:08.807Z,27.88
2024-03-02T19:16:15.113Z,26.05
2024-03-02T19:17:17.527Z,24.17
2024-03-02T19:18:19.850Z,21.27
2024-03-02T19:19:22.484Z,22.15
2024-03-02T19:20:24.916Z,23.23
2024-03-02T19:21:27.350Z,23.90
2024-03-02T19:22:31.847Z,22.33
2024-03-02T19:23:40.031Z,21.30
2024-03-02T19:24:45.978Z,18.65
2024-03-02T19:25:48.604Z,18.27
2024-03-02T19:26:51.044Z,17.50
2024-03-02T19:27:53.462Z,20.17
2024-03-02T19:28:55.869Z,17.75
2024-03-02T19:29:58.329Z,23.35
2024-03-02T19:31:00.711Z,23.85
2024-03-02T19:32:08.389Z,20.85
2024-03-02T19:33:15.807Z,21.00
2024-03-02T19:34:24.063Z,18.90
2024-03-02T19:35:27.667Z,18.35
2024-03-02T19:36:30.118Z,17.90
2024-03-02T19:37:32.510Z,17.58
2024-03-02T19:38:36.293Z,25.58
2024-03-02T19:39:43.223Z,23.25
2024-03-02T19:40:45.642Z,20.92
2024-03-02T19:41:47.964Z,20.95
2024-03-02T19:42:50.335Z,18.40
2024-03-02T19:43:52.693Z,19.17
2024-03-02T19:44:55.405Z,19.92
2024-03-02T19:45:57.754Z,18.70
2024-03-02T19:47:00.948Z,18.40
2024-03-02T19:48:03.794Z,19.42
2024-03-02T19:49:06.227Z,18.88
2024-03-02T19:50:09.622Z,19.23
2024-03-02T19:51:12.632Z,18.40
2024-03-02T19:52:15.865Z,18.45
2024-03-02T19:53:18.261Z,20.55
2024-03-02T19:54:20.618Z,18.35
2024-03-02T19:55:30.395Z,18.85
2024-03-02T19:56:34.434Z,17.88
2024-03-02T19:57:42.211Z,15.80
2024-03-02T19:58:44.842Z,14.88
2024-03-02T19:59:47.799Z,15.13
2024-03-02T20:00:50.292Z,14.45
2024-03-02T20:01:52.846Z,13.00
2024-03-02T20:02:55.349Z,12.27
2024-03-02T20:03:57.769Z,13.30
2024-03-02T20:05:00.369Z,11.70
2024-03-02T20:06:02.790Z,11.43
2024-03-02T20:07:05.426Z,16.73
2024-03-02T20:08:11.023Z,22.73
2024-03-02T20:09:13.604Z,24.13
2024-03-02T20:10:16.555Z,24.80
2024-03-02T20:11:19.100Z,26.08
2024-03-02T20:12:21.555Z,26.10
2024-03-02T20:13:24.191Z,22.52
2024-03-02T20:14:26.775Z,22.33
2024-03-02T20:15:29.093Z,23.95
2024-03-02T20:16:31.507Z,19.50
2024-03-02T20:17:34.029Z,20.38
2024-03-02T20:18:36.783Z,19.40
2024-03-02T20:19:42.490Z,18.10
2024-03-02T20:20:44.840Z,18.83
2024-03-02T20:21:47.251Z,17.52
2024-03-02T20:22:49.616Z,17.92
2024-03-02T20:23:51.984Z,17.08
2024-03-02T20:24:54.372Z,15.43
2024-03-02T20:25:59.036Z,14.93
2024-03-02T20:27:01.482Z,16.85
2024-03-02T20:28:05.105Z,14.77
2024-03-02T20:29:07.447Z,14.75
2024-03-02T20:30:10.975Z,19.33
2024-03-02T20:31:15.433Z,20.92
2024-03-02T20:32:20.292Z,19.73
2024-03-02T20:33:23.427Z,17.73
2024-03-02T20:34:26.456Z,19.20
2024-03-02T20:35:29.304Z,20.50
2024-03-02T20:36:31.708Z,19.23
2024-03-02T20:37:34.207Z,20.15
2024-03-02T20:38:36.822Z,18.10
2024-03-02T20:39:40.101Z,18.33
2024-03-02T20:40:45.604Z,20.20
2024-03-02T20:41:48.831Z,24.45
2024-03-02T20:42:51.200Z,23.58
2024-03-02T20:43:53.606Z,22.80
2024-03-02T20:44:55.984Z,22.73
2024-03-02T20:46:00.413Z,23.48
2024-03-02T20:47:02.795Z,24.48
2024-03-02T20:48:05.464Z,20.55
2024-03-02T20:49:07.956Z,23.50
2024-03-02T20:50:10.568Z,26.10
2024-03-02T20:51:12.925Z,25.13
2024-03-02T20:52:15.417Z,25.70
2024-03-02T20:53:17.878Z,22.85
2024-03-02T20:54:20.220Z,23.88
2024-03-02T20:55:22.626Z,25.00
2024-03-02T20:56:27.381Z,24.05
2024-03-02T20:57:30.326Z,26.17
2024-03-02T20:58:32.690Z,24.35
2024-03-02T20:59:35.288Z,24.60
2024-03-02T21:00:37.666Z,24.92
2024-03-02T21:01:40.167Z,25.05
2024-03-02T21:02:42.602Z,23.17
2024-03-02T21:03:45.597Z,23.40
2024-03-02T21:04:48.837Z,23.45
2024-03-02T21:05:51.276Z,24.17
2024-03-02T21:06:53.735Z,25.17
2024-03-02T21:07:56.266Z,24.00
2024-03-02T21:08:58.769Z,23.63
2024-03-02T21:10:01.457Z,27.80
2024-03-02T21:11:04.886Z,24.75
2024-03-02T21:12:09.736Z,30.30
2024-03-02T21:13:12.242Z,24.65
2024-03-02T21:14:14.935Z,23.92
2024-03-02T21:15:17.731Z,24.13
2024-03-02T21:16:20.155Z,23.42
2024-03-02T21:17:23.346Z,23.05
2024-03-02T21:18:25.840Z,23.50
2024-03-02T21:19:28.205Z,23.60
2024-03-02T21:20:30.534Z,24.20
2024-03-02T21:21:32.936Z,23.05
2024-03-02T21:22:37.133Z,25.83
2024-03-02T21:23:39.483Z,22.95
2024-03-02T21:24:46.915Z,22.00
2024-03-02T21:25:49.407Z,22.38
2024-03-02T21:26:51.748Z,22.88
2024-03-02T21:27:54.582Z,26.75
2024-03-02T21:28:57.027Z,24.02
2024-03-02T21:30:00.645Z,23.48
2024-03-02T21:31:03.645Z,23.02
2024-03-02T21:32:06.407Z,24.10
2024-03-02T21:33:08.813Z,24.20
2024-03-02T21:34:11.295Z,24.70
2024-03-02T21:35:13.682Z,24.35
2024-03-02T21:36:15.968Z,25.95
2024-03-02T21:37:18.395Z,24.33
2024-03-02T21:38:20.890Z,23.63
2024-03-02T21:39:32.081Z,23.95
2024-03-02T21:40:41.751Z,24.15
2024-03-02T21:41:44.093Z,24.40
2024-03-02T21:42:46.563Z,22.58
2024-03-02T21:43:48.998Z,25.48
2024-03-02T21:44:51.617Z,23.88
2024-03-02T21:45:54.105Z,24.08
2024-03-02T21:46:56.488Z,27.42
2024-03-02T21:47:58.965Z,25.60
2024-03-02T21:49:01.423Z,26.08
2024-03-02T21:50:05.566Z,26.45
2024-03-02T21:51:08.628Z,27.60
2024-03-02T21:52:11.131Z,33.95
2024-03-02T21:53:14.213Z,25.77
2024-03-02T21:54:16.532Z,37.50
2024-03-02T21:55:19.017Z,30.42
2024-03-02T21:56:21.490Z,42.60
2024-03-02T21:57:26.102Z,30.42
2024-03-02T21:58:28.475Z,32.25
2024-03-02T21:59:30.955Z,24.55
2024-03-02T22:00:35.297Z,24.65
2024-03-02T22:01:38.370Z,23.75
2024-03-02T22:02:41.178Z,23.55
2024-03-02T22:03:46.554Z,23.85
2024-03-02T22:04:49.077Z,24.60
2024-03-02T22:05:52.155Z,33.95
2024-03-02T22:06:55.348Z,23.45
2024-03-02T22:07:58.323Z,24.77
2024-03-02T22:09:00.671Z,26.98
2024-03-02T22:10:03.395Z,25.17
2024-03-02T22:11:06.017Z,25.25
2024-03-02T22:12:08.455Z,23.42
2024-03-02T22:13:10.965Z,27.30
2024-03-02T22:14:13.371Z,24.48
2024-03-02T22:15:15.922Z,23.75
2024-03-02T22:16:18.462Z,24.13
2024-03-02T22:17:20.902Z,23.23
2024-03-02T22:18:23.316Z,25.05
2024-03-02T22:19:25.769Z,25.70
2024-03-02T22:20:28.104Z,23.83
2024-03-02T22:21:30.620Z,22.88
2024-03-02T22:22:32.981Z,23.38
2024-03-02T22:23:38.869Z,23.52
2024-03-02T22:24:42.938Z,24.67
2024-03-02T22:25:45.650Z,23.75
2024-03-02T22:26:48.068Z,22.92
2024-03-02T22:27:56.189Z,22.63
2024-03-02T22:28:58.765Z,25.73
2024-03-02T22:30:01.106Z,23.42
2024-03-02T22:31:03.641Z,23.70
2024-03-02T22:32:06.919Z,24.08
2024-03-02T22:33:09.432Z,25.02
2024-03-02T22:34:12.249Z,22.40
2024-03-02T22:35:14.793Z,22.48
2024-03-02T22:36:17.184Z,29.67
2024-03-02T22:37:19.736Z,22.70
2024-03-02T22:38:22.163Z,23.40
2024-03-02T22:39:24.731Z,22.10
2024-03-02T22:40:27.168Z,23.15
2024-03-02T22:41:29.722Z,22.92
2024-03-02T22:42:33.832Z,21.33
2024-03-02T22:43:36.985Z,23.17
2024-03-02T22:44:39.373Z,21.60
2024-03-02T22:45:41.751Z,21.75
2024-03-02T22:46:44.109Z,22.63
2024-03-02T22:47:46.692Z,21.63
2024-03-02T22:48:49.191Z,18.67
2024-03-02T22:49:56.837Z,19.23
2024-03-02T22:50:59.823Z,18.20
2024-03-02T22:52:02.221Z,21.92
2024-03-02T22:53:04.778Z,21.77
2024-03-02T22:54:07.186Z,20.67
2024-03-02T22:55:11.498Z,20.08
2024-03-02T22:56:13.900Z,19.25
2024-03-02T22:57:18.974Z,19.02
2024-03-02T22:58:21.481Z,19.13
2024-03-02T22:59:24.268Z,16.70
2024-03-02T23:00:37.089Z,16.83
2024-03-02T23:01:42.025Z,15.63
2024-03-02T23:02:44.640Z,17.52
2024-03-02T23:03:47.125Z,16.52
2024-03-02T23:04:49.566Z,15.90
2024-03-02T23:05:52.007Z,16.35
2024-03-02T23:06:54.410Z,16.85
2024-03-02T23:07:57.641Z,18.20
2024-03-02T23:09:00.082Z,16.65
2024-03-02T23:10:02.493Z,16.15
2024-03-02T23:11:06.029Z,15.93
2024-03-02T23:12:08.395Z,16.33
2024-03-02T23:13:10.897Z,16.90
2024-03-02T23:14:13.462Z,16.52
2024-03-02T23:15:16.126Z,16.60
2024-03-02T23:16:18.554Z,16.27
2024-03-02T23:17:20.893Z,18.55
2024-03-02T23:18:23.507Z,16.67
2024-03-02T23:19:25.961Z,25.70
2024-03-02T23:20:28.321Z,22.58
2024-03-02T23:21:30.717Z,21.83
2024-03-02T23:22:33.076Z,21.17
2024-03-02T23:23:35.477Z,21.45
2024-03-02T23:24:37.967Z,20.67
2024-03-02T23:25:40.309Z,20.23
2024-03-02T23:26:43.852Z,20.05
2024-03-02T23:27:46.401Z,19.25
2024-03-02T23:28:48.766Z,19.20
2024-03-02T23:29:51.219Z,18.95
2024-03-02T23:30:53.583Z,18.17
2024-03-02T23:31:56.023Z,16.08
2024-03-02T23:32:59.010Z,17.35
2024-03-02T23:34:04.964Z,16.02
2024-03-02T23:35:08.172Z,17.95
2024-03-02T23:36:10.529Z,21.00
2024-03-02T23:37:12.967Z,21.80
2024-03-02T23:38:15.394Z,22.83
2024-03-02T23:39:37.810Z,21.33
2024-03-02T23:41:03.804Z,22.67
2024-03-02T23:42:06.480Z,24.13
2024-03-02T23:43:10.102Z,23.58
2024-03-02T23:44:14.782Z,21.02
2024-03-02T23:45:17.360Z,19.67
2024-03-02T23:46:19.870Z,21.45
2024-03-02T23:47:22.251Z,19.88
2024-03-02T23:48:24.731Z,20.60
2024-03-02T23:49:27.573Z,18.80
2024-03-02T23:50:29.990Z,19.65
2024-03-02T23:51:32.458Z,19.90
2024-03-02T23:52:35.038Z,22.38
2024-03-02T23:53:37.445Z,22.52
2024-03-02T23:54:39.882Z,22.90
2024-03-02T23:55:47.827Z,24.27
2024-03-02T23:56:54.791Z,23.55
2024-03-02T23:57:58.092Z,21.48
2024-03-02T23:59:03.665Z,23.63
